Time;durP1;ratioP1;P1;durP2;ratioP2;P2;SDS_P1;SDS_P2;PMS_P1;PMS_P2;Temp;Humidity;BMP_temperature;BMP_pressure;BME280_temperature;BME280_humidity;BME280_pressure;Samples;Min_cycle;Max_cycle;Signal;HPM_P1;HPM_P2
2022/06/07 00:01:05;;;;;;;1.52;1.00;;;;;;;26.94;34.64;96737.44;5136410;27;20015;-27
2022/06/07 00:03:31;;;;;;;2.40;1.10;;;;;;;26.98;35.19;96726.72;5136403;27;20072;-27
2022/06/07 00:05:56;;;;;;;3.15;1.40;;;;;;;26.93;35.19;96731.13;5136111;27;20019;-26
2022/06/07 00:08:23;;;;;;;2.13;1.33;;;;;;;26.91;34.71;96730.13;5136149;27;20026;-27
2022/06/07 00:10:49;;;;;;;1.77;1.38;;;;;;;26.95;34.59;96720.22;5136088;27;20058;-26
2022/06/07 00:16:36;;;;;;;3.38;1.40;;;;;;;26.81;35.10;96716.59;5134921;27;20029;-30
2022/06/07 00:19:02;;;;;;;2.83;1.20;;;;;;;26.90;34.49;96714.69;5135899;27;20378;-26
2022/06/07 00:21:29;;;;;;;1.42;1.20;;;;;;;27.00;34.24;96716.56;5136174;27;20011;-27
2022/06/07 00:23:56;;;;;;;2.95;1.27;;;;;;;26.91;34.07;96716.94;5135764;27;20129;-26
2022/06/07 00:26:22;;;;;;;3.65;1.30;;;;;;;26.94;34.47;96715.19;5135659;27;20027;-27
2022/06/07 00:28:48;;;;;;;1.77;1.10;;;;;;;26.88;34.47;96706.13;5135830;27;20076;-26
2022/06/07 00:31:14;;;;;;;2.17;1.00;;;;;;;26.95;33.63;96705.53;5135664;27;20094;-27
2022/06/07 00:33:39;;;;;;;1.50;1.08;;;;;;;26.92;33.53;96701.75;5135700;27;20038;-27
2022/06/07 00:36:05;;;;;;;2.33;1.10;;;;;;;26.95;33.66;96699.97;5135767;27;20015;-26
2022/06/07 00:38:32;;;;;;;1.95;1.23;;;;;;;26.99;33.28;96698.38;5135567;27;20030;-28
2022/06/07 00:40:58;;;;;;;1.23;1.00;;;;;;;26.99;32.83;96700.41;5135526;27;20023;-26
2022/06/07 00:43:24;;;;;;;2.50;0.90;;;;;;;26.92;32.60;96701.00;5135375;27;20022;-27
2022/06/07 00:45:49;;;;;;;2.33;1.30;;;;;;;26.94;33.22;96690.88;5135445;27;20534;-26
2022/06/07 00:48:15;;;;;;;1.98;1.00;;;;;;;26.83;32.91;96697.31;5135276;27;20055;-27
2022/06/07 00:50:44;;;;;;;1.48;1.08;;;;;;;26.91;33.10;96693.94;5116853;27;20019;-26
2022/06/07 00:53:22;;;;;;;1.60;1.10;;;;;;;26.92;33.33;96696.19;5135214;27;20114;-26
2022/06/07 00:55:47;;;;;;;2.03;1.08;;;;;;;26.83;33.46;96688.97;5135473;27;20084;-27
2022/06/07 00:58:13;;;;;;;1.67;1.00;;;;;;;26.94;32.84;96692.91;5135235;27;20467;-27
2022/06/07 01:00:39;;;;;;;2.25;0.90;;;;;;;26.93;32.10;96683.06;5135443;27;20381;-26
2022/06/07 01:03:04;;;;;;;1.52;1.05;;;;;;;26.98;32.11;96688.53;5135031;27;20026;-27
2022/06/07 01:05:30;;;;;;;1.13;1.00;;;;;;;26.97;32.57;96689.03;5135120;27;20054;-26
2022/06/07 01:10:45;;;;;;;2.78;1.00;;;;;;;26.97;32.63;96687.00;5134655;27;20046;-26
2022/06/07 01:13:12;;;;;;;1.75;1.00;;;;;;;26.88;32.14;96686.63;5134866;27;20023;-28
2022/06/07 01:15:38;;;;;;;0.85;0.80;;;;;;;26.96;31.92;96679.19;5134848;27;20023;-26
2022/06/07 01:18:04;;;;;;;1.92;1.00;;;;;;;26.94;31.85;96676.22;5134739;27;20386;-27
2022/06/07 01:20:30;;;;;;;2.15;0.90;;;;;;;26.91;31.60;96674.44;5135041;27;20408;-26
2022/06/07 01:26:18;;;;;;;2.65;0.93;;;;;;;26.95;31.80;96666.59;5134378;27;20050;-26
2022/06/07 01:28:43;;;;;;;1.60;1.08;;;;;;;26.87;32.04;96652.50;5134404;27;20467;-27
2022/06/07 01:31:09;;;;;;;4.00;1.13;;;;;;;26.88;31.25;96658.81;5135029;27;20023;-27
2022/06/07 01:33:34;;;;;;;2.20;1.20;;;;;;;26.88;31.32;96656.03;5134479;27;20023;-27
2022/06/07 01:36:11;;;;;;;1.40;1.10;;;;;;;26.89;32.27;96654.75;5134648;27;20502;-27
2022/06/07 01:38:39;;;;;;;1.88;1.00;;;;;;;26.82;31.64;96651.31;5134468;27;20047;-27
2022/06/07 01:43:49;;;;;;;2.25;1.05;;;;;;;26.82;31.78;96640.19;5134452;27;20517;-27
2022/06/07 01:46:15;;;;;;;1.85;0.90;;;;;;;26.83;32.12;96658.34;5134521;27;20109;-26
2022/06/07 01:48:41;;;;;;;1.55;0.85;;;;;;;26.82;31.69;96648.53;5134433;28;20062;-26
2022/06/07 01:51:08;;;;;;;1.40;1.10;;;;;;;26.77;31.59;96649.34;5134378;27;20023;-27
2022/06/07 01:53:35;;;;;;;2.90;1.30;;;;;;;26.77;31.01;96643.78;5134321;28;20023;-26
2022/06/07 01:56:16;;;;;;;1.88;1.08;;;;;;;26.79;30.98;96646.81;5134427;28;20462;-28
2022/06/07 01:58:43;;;;;;;2.30;1.10;;;;;;;26.78;31.43;96644.56;5134139;28;20061;-28
2022/06/07 02:01:10;;;;;;;2.22;1.23;;;;;;;26.80;30.66;96639.22;5134297;28;20455;-27
2022/06/07 02:03:35;;;;;;;1.42;0.90;;;;;;;26.76;31.17;96639.50;5134367;28;20072;-26
2022/06/07 02:06:04;;;;;;;1.80;1.00;;;;;;;26.78;31.15;96641.75;5134529;28;20027;-26
2022/06/07 02:08:30;;;;;;;1.42;0.82;;;;;;;26.76;30.67;96630.41;5134137;28;20360;-27
2022/06/07 02:11:02;;;;;;;2.10;0.95;;;;;;;26.73;30.35;96634.25;5133841;28;20043;-26
2022/06/07 02:13:28;;;;;;;1.70;0.90;;;;;;;26.71;31.06;96637.56;5134119;28;20053;-26
2022/06/07 02:15:53;;;;;;;1.50;1.10;;;;;;;26.68;30.50;96635.84;5134227;28;20106;-27
2022/06/07 02:18:19;;;;;;;1.67;0.98;;;;;;;26.73;30.22;96637.78;5134357;28;20034;-26
2022/06/07 02:20:44;;;;;;;1.83;0.70;;;;;;;26.76;30.42;96633.19;5134174;28;20019;-26
2022/06/07 02:23:10;;;;;;;1.90;1.02;;;;;;;26.71;30.91;96631.25;5134141;28;20023;-27
2022/06/07 02:25:43;;;;;;;2.22;1.13;;;;;;;26.72;30.35;96624.41;5134046;28;20031;-27
2022/06/07 02:28:11;;;;;;;2.88;1.13;;;;;;;26.71;30.23;96623.63;5134208;28;20384;-27
2022/06/07 02:30:38;;;;;;;2.35;1.02;;;;;;;26.72;29.87;96629.97;5134380;28;20049;-28
2022/06/07 02:33:03;;;;;;;1.55;0.90;;;;;;;26.74;30.48;96616.28;5133863;28;20023;-26
2022/06/07 02:35:29;;;;;;;1.83;0.90;;;;;;;26.72;30.44;96616.81;5134091;27;20034;-26
2022/06/07 02:37:55;;;;;;;2.38;0.88;;;;;;;26.72;30.55;96616.06;5137787;27;20025;-26
2022/06/07 02:40:20;;;;;;;2.42;1.05;;;;;;;26.65;30.00;96605.56;5137851;27;20473;-28
2022/06/07 02:42:46;;;;;;;1.30;0.88;;;;;;;26.66;29.40;96618.94;5137903;27;20023;-27
2022/06/07 02:45:11;;;;;;;1.10;0.80;;;;;;;26.68;30.20;96607.28;5137648;27;20023;-26
2022/06/07 02:47:37;;;;;;;2.38;0.95;;;;;;;26.71;29.47;96604.16;5137731;27;20030;-27
2022/06/07 02:50:04;;;;;;;1.35;1.10;;;;;;;26.65;30.00;96611.13;5137730;27;20023;-26
2022/06/07 02:52:29;;;;;;;1.17;0.98;;;;;;;26.65;30.50;96606.31;5137557;27;20106;-26
2022/06/07 02:54:55;;;;;;;4.55;1.08;;;;;;;26.65;29.50;96606.31;5137415;27;20119;-26
2022/06/07 02:57:20;;;;;;;1.27;0.90;;;;;;;26.63;29.78;96608.84;5137570;27;20360;-26
2022/06/07 02:59:46;;;;;;;2.47;0.98;;;;;;;26.65;30.65;96611.13;5137443;27;20533;-27
2022/06/07 03:02:12;;;;;;;2.47;0.95;;;;;;;26.63;29.32;96611.63;5137848;27;20113;-27
2022/06/07 03:04:37;;;;;;;1.48;0.90;;;;;;;26.61;29.23;96608.63;5137456;27;20035;-28
2022/06/07 03:07:04;;;;;;;3.92;0.95;;;;;;;26.60;29.81;96612.69;5137265;27;20023;-26
2022/06/07 03:09:30;;;;;;;1.98;1.08;;;;;;;26.51;29.81;96610.31;5137372;27;20367;-26
2022/06/07 03:11:56;;;;;;;2.95;1.20;;;;;;;26.58;30.05;96615.25;5137140;27;20527;-27
2022/06/07 03:14:22;;;;;;;1.98;1.05;;;;;;;26.58;29.34;96617.31;5137334;27;20110;-26
2022/06/07 03:16:49;;;;;;;1.05;0.80;;;;;;;26.55;29.59;96610.75;5137512;27;20058;-28
2022/06/07 03:19:14;;;;;;;1.50;1.00;;;;;;;26.57;30.08;96613.78;5137146;27;20383;-27
2022/06/07 03:21:40;;;;;;;1.42;0.80;;;;;;;26.52;29.86;96622.94;5137016;27;20140;-27
2022/06/07 03:24:06;;;;;;;1.30;1.05;;;;;;;26.56;30.17;96620.63;5136917;27;20023;-27
2022/06/07 03:26:32;;;;;;;1.00;0.88;;;;;;;26.52;30.02;96617.38;5137097;27;20432;-27
2022/06/07 03:28:58;;;;;;;1.30;0.80;;;;;;;26.50;28.99;96619.94;5137226;27;20027;-27
2022/06/07 03:31:23;;;;;;;1.27;0.85;;;;;;;26.55;30.40;96616.31;5136749;27;20050;-27
2022/06/07 03:33:49;;;;;;;1.23;0.90;;;;;;;26.50;29.94;96619.94;5136982;27;20027;-27
2022/06/07 03:36:18;;;;;;;5.28;1.92;;;;;;;26.50;30.12;96614.38;5136780;27;20054;-28
2022/06/07 03:38:44;;;;;;;6.93;1.50;;;;;;;26.50;29.96;96619.94;5136748;27;20027;-28
2022/06/07 03:41:22;;;;;;;4.43;1.30;;;;;;;26.46;29.60;96613.91;5136784;27;20023;-26
2022/06/07 03:43:48;;;;;;;4.28;1.30;;;;;;;26.44;29.45;96602.59;5136733;27;20031;-26
2022/06/07 03:46:16;;;;;;;7.75;1.70;;;;;;;26.42;29.79;96607.94;5136666;27;20023;-28
2022/06/07 03:48:43;;;;;;;3.25;0.98;;;;;;;26.44;29.58;96610.94;5136248;27;20023;-26
2022/06/07 03:51:10;;;;;;;3.92;1.10;;;;;;;26.41;29.60;96618.28;5136399;27;20031;-27
2022/06/07 03:53:36;;;;;;;3.10;1.13;;;;;;;26.36;29.51;96612.81;5136588;27;20359;-28
2022/06/07 03:56:03;;;;;;;2.28;1.20;;;;;;;26.38;29.93;96613.78;5136711;27;20024;-26
2022/06/07 03:58:29;;;;;;;3.13;1.10;;;;;;;26.41;29.56;96614.75;5136240;27;20019;-26
2022/06/07 04:00:59;;;;;;;2.92;1.00;;;;;;;26.40;29.90;96610.47;5136459;27;20021;-26
2022/06/07 04:03:26;;;;;;;2.97;1.20;;;;;;;26.42;29.91;96605.16;5136256;27;20030;-26
2022/06/07 04:05:52;;;;;;;4.38;1.15;;;;;;;26.38;29.74;96608.22;5136214;27;20471;-26
2022/06/07 04:08:17;;;;;;;4.15;0.82;;;;;;;26.40;29.62;96608.44;5136216;27;20072;-27
2022/06/07 04:10:55;;;;;;;1.38;0.90;;;;;;;26.38;29.45;96602.66;5135925;27;20047;-26
2022/06/07 04:13:22;;;;;;;2.83;1.10;;;;;;;26.39;30.10;96597.84;5136121;27;20043;-26
2022/06/07 04:15:48;;;;;;;1.45;0.82;;;;;;;26.37;29.65;96603.19;5136109;27;20027;-27
2022/06/07 04:18:15;;;;;;;2.92;0.90;;;;;;;26.42;29.37;96592.00;5136381;27;20057;-26
2022/06/07 04:20:40;;;;;;;1.50;1.00;;;;;;;26.32;29.37;96593.66;5135912;27;20455;-26
2022/06/07 04:23:07;;;;;;;4.65;1.30;;;;;;;26.33;29.83;96595.16;5135944;27;20047;-27
2022/06/07 04:25:37;;;;;;;4.28;1.63;;;;;;;26.37;29.47;96597.63;5135866;27;20030;-27
2022/06/07 04:28:03;;;;;;;6.15;1.40;;;;;;;26.38;30.18;96591.53;5135787;27;20034;-29
2022/06/07 04:30:30;;;;;;;2.45;1.27;;;;;;;26.32;29.57;96587.34;5135777;27;20019;-27
2022/06/07 04:32:56;;;;;;;6.10;1.65;;;;;;;26.31;30.01;96594.94;5135555;27;20019;-26
2022/06/07 04:35:21;;;;;;;3.83;1.48;;;;;;;26.39;30.01;96592.28;5135794;27;20020;-26
2022/06/07 04:37:48;;;;;;;4.60;1.40;;;;;;;26.33;30.16;96589.59;5135874;27;20436;-27
2022/06/07 04:40:15;;;;;;;3.05;1.40;;;;;;;26.32;29.80;96598.47;5135314;27;20019;-26
2022/06/07 04:42:41;;;;;;;3.00;1.30;;;;;;;26.32;30.36;96599.22;5135705;27;20084;-29
2022/06/07 04:45:11;;;;;;;2.08;1.00;;;;;;;26.31;30.62;96594.19;5135544;27;20487;-26
2022/06/07 04:47:37;;;;;;;3.20;1.27;;;;;;;26.32;30.23;96592.91;5135402;27;20034;-27
2022/06/07 04:50:07;;;;;;;3.78;1.17;;;;;;;26.33;30.45;96600.72;5135380;27;20023;-26
2022/06/07 04:52:33;;;;;;;3.42;1.33;;;;;;;26.29;30.25;96599.53;5135273;27;20019;-27
2022/06/07 04:54:58;;;;;;;3.78;1.02;;;;;;;26.33;30.72;96594.41;5135174;27;20031;-27
2022/06/07 04:57:24;;;;;;;2.42;1.20;;;;;;;26.22;30.96;96592.50;5135283;27;20459;-28
2022/06/07 04:59:49;;;;;;;2.75;1.15;;;;;;;26.27;30.48;96588.16;5134315;27;20027;-27
2022/06/07 05:02:15;;;;;;;2.20;1.13;;;;;;;26.28;30.81;96600.78;5116720;27;20072;-26
2022/06/07 05:04:40;;;;;;;3.40;1.30;;;;;;;26.26;30.56;96589.41;5135282;27;20019;-28
2022/06/07 05:07:06;;;;;;;3.25;1.13;;;;;;;26.25;31.04;96588.66;5134866;27;20023;-26
2022/06/07 05:09:32;;;;;;;3.88;1.45;;;;;;;26.28;31.33;96586.91;5134836;27;20068;-27
2022/06/07 05:11:58;;;;;;;4.00;1.63;;;;;;;26.33;31.02;96595.16;5134875;27;20023;-27
2022/06/07 05:14:24;;;;;;;4.18;1.25;;;;;;;26.31;31.11;96596.97;5134925;27;20027;-26
2022/06/07 05:16:51;;;;;;;3.20;1.00;;;;;;;26.29;31.15;96593.97;5134939;27;20459;-26
2022/06/07 05:19:18;;;;;;;4.93;1.58;;;;;;;26.29;30.98;96596.75;5134892;27;20019;-26
2022/06/07 05:21:51;;;;;;;5.13;1.23;;;;;;;26.26;31.11;96600.53;5134711;27;20075;-26
2022/06/07 05:24:21;;;;;;;3.45;1.63;;;;;;;26.30;31.20;96595.47;5135436;27;20391;-26
2022/06/07 05:26:59;;;;;;;2.80;1.25;;;;;;;26.26;31.94;96594.97;5134631;27;20030;-27
2022/06/07 05:29:47;;;;;;;2.72;1.30;;;;;;;26.20;31.32;96594.31;5134654;27;20160;-26
2022/06/07 05:32:14;;;;;;;2.85;1.23;;;;;;;26.23;31.43;96590.47;5134802;27;20019;-26
2022/06/07 05:34:39;;;;;;;2.08;1.20;;;;;;;26.22;31.53;96591.75;5134784;27;20053;-27
2022/06/07 05:37:05;;;;;;;4.70;1.33;;;;;;;26.23;31.94;96596.78;5134479;27;20023;-27
2022/06/07 05:39:30;;;;;;;4.55;1.48;;;;;;;26.23;31.72;96607.16;5134627;27;20076;-26
2022/06/07 05:41:57;;;;;;;3.70;1.40;;;;;;;26.23;32.02;96596.78;5134466;27;20463;-27
2022/06/07 05:44:25;;;;;;;4.10;1.70;;;;;;;26.26;31.78;96600.53;5134459;27;20030;-27
2022/06/07 05:46:52;;;;;;;4.63;1.40;;;;;;;26.25;32.33;96599.78;5134702;27;20407;-26
2022/06/07 05:49:18;;;;;;;2.40;1.58;;;;;;;26.25;32.07;96602.56;5134770;27;20418;-26
2022/06/07 05:51:44;;;;;;;3.88;1.50;;;;;;;26.26;32.42;96597.75;5134616;27;20046;-27
2022/06/07 05:54:13;;;;;;;6.13;1.95;;;;;;;26.25;32.62;96604.59;5134493;27;20108;-26
2022/06/07 05:56:39;;;;;;;3.85;1.58;;;;;;;26.25;32.17;96597.00;5134396;28;20030;-27
2022/06/07 05:59:05;;;;;;;3.30;1.77;;;;;;;26.23;32.34;96607.16;5127381;28;20023;-26
2022/06/07 06:01:32;;;;;;;3.03;1.50;;;;;;;26.21;32.74;96604.16;5099544;27;20425;-26
2022/06/07 06:03:58;;;;;;;4.53;1.65;;;;;;;26.22;32.46;96600.84;5132053;28;20034;-27
2022/06/07 06:06:24;;;;;;;3.40;1.90;;;;;;;26.24;32.20;96603.84;5132267;28;20099;-27
2022/06/07 06:11:34;;;;;;;4.68;1.58;;;;;;;26.24;32.47;96605.88;5115123;28;20055;-26
2022/06/07 06:14:00;;;;;;;3.97;1.80;;;;;;;26.25;32.30;96604.59;5115621;28;20077;-27
2022/06/07 06:16:26;;;;;;;5.32;1.85;;;;;;;26.25;32.11;96596.25;5115789;28;20031;-26
2022/06/07 06:18:55;;;;;;;3.47;1.90;;;;;;;26.24;32.38;96598.28;5118041;27;20059;-26
2022/06/07 06:21:23;;;;;;;2.70;1.50;;;;;;;26.26;32.38;96597.75;5134845;27;20019;-26
2022/06/07 06:23:49;;;;;;;3.63;1.58;;;;;;;26.21;31.95;96604.88;5136205;27;20080;-26
2022/06/07 06:26:16;;;;;;;3.90;1.80;;;;;;;26.22;31.76;96606.41;5136204;27;20031;-27
2022/06/07 06:28:42;;;;;;;3.03;1.77;;;;;;;26.15;31.61;96600.69;5136287;27;20038;-26
2022/06/07 06:31:10;;;;;;;2.47;1.40;;;;;;;26.19;31.36;96606.72;5135931;27;20023;-27
2022/06/07 06:33:48;;;;;;;3.22;1.60;;;;;;;26.18;31.22;96599.66;5135941;27;20483;-27
2022/06/07 06:36:16;;;;;;;3.38;1.60;;;;;;;26.16;31.50;96607.75;5136015;27;20022;-26
2022/06/07 06:38:43;;;;;;;3.30;1.60;;;;;;;26.18;31.60;96599.66;5135938;27;20031;-27
2022/06/07 06:41:21;;;;;;;3.42;2.03;;;;;;;26.17;31.42;96609.28;5135860;27;20026;-26
2022/06/07 06:43:47;;;;;;;2.88;1.40;;;;;;;26.07;31.61;96601.31;5135775;27;20026;-26
2022/06/07 06:46:17;;;;;;;2.38;1.58;;;;;;;26.09;31.82;96604.28;5136021;27;20027;-26
2022/06/07 06:48:43;;;;;;;3.63;1.50;;;;;;;26.08;31.59;96600.03;5135529;27;20065;-26
2022/06/07 06:51:11;;;;;;;2.35;1.45;;;;;;;26.07;31.31;96604.09;5135855;27;20035;-27
2022/06/07 06:53:38;;;;;;;4.25;1.42;;;;;;;26.11;31.01;96596.19;5135729;27;20098;-26
2022/06/07 06:56:04;;;;;;;3.60;1.10;;;;;;;26.12;31.52;96588.59;5127443;27;20051;-26
2022/06/07 06:58:30;;;;;;;2.13;1.23;;;;;;;26.17;31.58;96595.38;5114960;28;20039;-28
2022/06/07 07:01:00;;;;;;;4.35;1.13;;;;;;;26.10;30.91;96608.56;5114700;28;20031;-26
2022/06/07 07:03:26;;;;;;;1.58;1.30;;;;;;;26.17;31.68;96601.69;5114953;28;20111;-27
2022/06/07 07:05:53;;;;;;;2.15;1.30;;;;;;;26.18;31.56;96599.66;5114746;28;20098;-26
2022/06/07 07:08:18;;;;;;;3.22;1.60;;;;;;;26.19;31.99;96601.16;5114811;28;20035;-26
2022/06/07 07:10:44;;;;;;;2.95;1.65;;;;;;;26.22;32.12;96605.66;5114750;28;20044;-26
2022/06/07 07:13:09;;;;;;;4.65;1.55;;;;;;;26.19;32.12;96601.16;5114489;28;20429;-27
2022/06/07 07:15:35;;;;;;;2.65;1.38;;;;;;;26.23;32.27;96596.03;5114770;28;20057;-27
2022/06/07 07:18:01;;;;;;;3.13;1.45;;;;;;;26.22;32.46;96589.72;5114636;28;20463;-26
2022/06/07 07:20:26;;;;;;;1.70;1.58;;;;;;;26.27;32.51;96594.47;5112752;28;20053;-27
2022/06/07 07:22:52;;;;;;;1.67;1.38;;;;;;;26.22;32.17;96583.41;5114048;28;20019;-26
2022/06/07 07:25:17;;;;;;;1.73;1.35;;;;;;;26.19;32.55;96590.78;5114314;28;20032;-26
2022/06/07 07:27:44;;;;;;;2.78;1.30;;;;;;;26.13;32.58;96582.53;5114446;28;20024;-27
2022/06/07 07:30:10;;;;;;;1.85;1.35;;;;;;;26.19;32.59;96581.69;5114364;28;20027;-26
2022/06/07 07:32:35;;;;;;;1.50;1.40;;;;;;;26.22;32.20;96586.94;5114516;28;20386;-26
2022/06/07 07:35:01;;;;;;;3.03;1.35;;;;;;;26.19;32.51;96590.03;5114342;28;20016;-27
2022/06/07 07:37:26;;;;;;;3.05;1.27;;;;;;;26.19;32.87;96579.66;5114069;28;20047;-26
2022/06/07 07:39:53;;;;;;;2.08;1.58;;;;;;;26.20;32.35;96583.19;5114286;28;20521;-25
2022/06/07 07:42:18;;;;;;;4.80;1.20;;;;;;;25.50;31.97;96576.75;5113216;28;20538;-28
2022/06/07 07:44:44;;;;;;;1.73;1.00;;;;;;;25.88;31.58;96580.34;5114178;28;20039;-27
2022/06/07 07:47:09;;;;;;;3.72;1.75;;;;;;;25.70;31.51;96574.25;5114051;28;20031;-27
2022/06/07 07:49:35;;;;;;;4.80;1.33;;;;;;;25.81;31.22;96576.16;5113139;28;20039;-28
2022/06/07 07:52:00;;;;;;;4.53;1.38;;;;;;;25.96;31.21;96572.94;5113613;28;20081;-27
2022/06/07 07:54:26;;;;;;;2.22;1.30;;;;;;;25.93;31.50;96568.41;5113881;28;20023;-28
2022/06/07 07:56:52;;;;;;;2.80;1.30;;;;;;;26.08;31.66;96574.28;5113640;28;20102;-27
2022/06/07 07:59:19;;;;;;;3.75;1.40;;;;;;;26.10;31.66;96577.25;5113741;28;20115;-29
2022/06/07 08:01:45;;;;;;;7.38;1.55;;;;;;;26.06;31.59;96582.38;5113624;28;20535;-28
2022/06/07 08:04:10;;;;;;;2.05;1.23;;;;;;;26.01;31.50;96572.84;5113942;28;20115;-27
2022/06/07 08:06:37;;;;;;;1.58;1.10;;;;;;;25.91;31.09;96574.50;5130324;27;20063;-28
2022/06/07 08:09:05;;;;;;;3.03;1.52;;;;;;;26.09;31.54;96572.97;5133844;27;20038;-27
2022/06/07 08:11:34;;;;;;;5.32;1.60;;;;;;;25.99;31.55;96574.63;5133330;27;20154;-27
2022/06/07 08:14:01;;;;;;;2.60;1.35;;;;;;;25.94;31.80;96575.47;5133104;27;20056;-27
2022/06/07 08:16:27;;;;;;;3.30;1.35;;;;;;;26.00;31.79;96568.56;5133713;27;20058;-27
2022/06/07 08:18:53;;;;;;;5.32;1.55;;;;;;;26.02;31.49;96566.00;5133853;27;20378;-27
2022/06/07 08:21:25;;;;;;;2.95;1.25;;;;;;;26.02;31.74;96568.78;5132209;27;20024;-28
2022/06/07 08:23:51;;;;;;;3.08;1.42;;;;;;;26.04;31.71;96573.81;5133643;27;20419;-27
2022/06/07 08:26:17;;;;;;;3.03;1.35;;;;;;;26.02;31.90;96568.03;5133715;27;20051;-28
2022/06/07 08:28:44;;;;;;;7.68;1.48;;;;;;;26.07;31.78;96567.97;5133923;27;20023;-27
2022/06/07 08:31:16;;;;;;;3.95;1.70;;;;;;;26.07;31.76;96567.22;5133598;27;20469;-27
2022/06/07 08:39:11;;;;;;;3.58;1.23;;;;;;;26.06;31.68;96563.69;5134779;27;20062;-27
2022/06/07 08:41:42;;;;;;;4.82;1.55;;;;;;;26.02;31.93;96568.03;5135604;27;20099;-28
2022/06/07 08:44:16;;;;;;;3.38;1.30;;;;;;;26.00;32.27;96565.03;5135531;27;20029;-27
2022/06/07 08:46:42;;;;;;;3.80;1.30;;;;;;;26.04;32.05;96563.44;5135547;27;20027;-29
2022/06/07 08:49:11;;;;;;;3.50;1.40;;;;;;;26.08;32.24;96552.78;5135594;27;20413;-28
2022/06/07 08:51:50;;;;;;;2.53;1.60;;;;;;;26.04;32.63;96563.44;5134714;27;20023;-28
2022/06/07 08:54:24;;;;;;;3.13;1.20;;;;;;;26.05;32.57;96556.63;5135453;27;20384;-28
2022/06/07 08:56:51;;;;;;;3.78;1.30;;;;;;;26.00;32.51;96567.81;5135354;27;20027;-28
2022/06/07 08:59:19;;;;;;;5.18;1.25;;;;;;;26.01;32.92;96558.94;5135248;27;20031;-27
2022/06/07 09:01:47;;;;;;;3.05;1.42;;;;;;;26.06;32.72;96552.56;5135150;27;20019;-28
2022/06/07 09:04:25;;;;;;;2.35;1.35;;;;;;;26.05;32.81;96553.84;5135224;27;20027;-27
2022/06/07 09:06:57;;;;;;;3.30;1.60;;;;;;;25.92;32.99;96558.56;5116518;27;20368;-28
2022/06/07 09:12:28;;;;;;;1.63;1.33;;;;;;;26.00;32.65;96554.66;5135260;27;20027;-27
2022/06/07 09:15:04;;;;;;;2.03;1.13;;;;;;;26.06;32.57;96554.59;5135156;27;20027;-26
2022/06/07 09:17:29;;;;;;;2.33;1.42;;;;;;;26.00;32.90;96548.34;5134944;27;20023;-27
2022/06/07 09:19:56;;;;;;;1.95;1.30;;;;;;;26.03;32.63;96548.06;5134715;27;20099;-28
2022/06/07 09:22:29;;;;;;;2.92;1.15;;;;;;;26.00;32.71;96549.09;5134993;27;20076;-27
2022/06/07 09:25:21;;;;;;;4.60;1.40;;;;;;;26.09;32.70;96542.41;5134885;27;20041;-28
2022/06/07 09:27:48;;;;;;;3.13;1.55;;;;;;;25.97;32.80;96541.81;5116308;27;20383;-27
2022/06/07 09:30:17;;;;;;;2.55;1.50;;;;;;;26.05;32.93;96542.72;5134712;27;20023;-27
2022/06/07 09:32:45;;;;;;;2.25;1.80;;;;;;;26.04;32.98;96544.00;5134655;27;20102;-27
2022/06/07 09:35:20;;;;;;;2.38;1.58;;;;;;;26.04;32.84;96535.66;5134392;27;20027;-27
2022/06/07 09:37:51;;;;;;;2.88;1.70;;;;;;;25.87;33.08;96535.13;5134911;27;20023;-28
2022/06/07 09:40:27;;;;;;;3.08;1.65;;;;;;;26.02;32.71;96543.78;5134455;27;20030;-27
2022/06/07 09:43:34;;;;;;;2.10;1.38;;;;;;;25.96;32.89;96534.03;5134681;27;20091;-27
2022/06/07 09:46:07;;;;;;;2.95;1.30;;;;;;;26.01;32.86;96530.41;5134258;27;20474;-26
2022/06/07 09:48:37;;;;;;;;;;;;;;;26.07;32.68;96528.31;5134897;27;20031;-27
2022/06/07 09:51:37;;;;;;;3.60;1.60;;;;;;;26.07;32.63;96517.94;5134528;27;20313;-28
2022/06/07 09:54:13;;;;;;;3.22;1.80;;;;;;;26.12;32.93;96524.66;5134191;27;20394;-27
2022/06/07 09:56:57;;;;;;;1.90;1.70;;;;;;;26.08;32.79;96519.44;5134427;27;20019;-28
2022/06/07 09:59:42;;;;;;;3.25;1.80;;;;;;;26.10;32.96;96511.31;5134478;28;20112;-27
2022/06/07 10:02:32;;;;;;;4.75;1.90;;;;;;;26.03;33.02;96511.94;5134556;28;20019;-28
2022/06/07 10:05:13;;;;;;;4.85;1.65;;;;;;;26.13;32.80;96504.69;5134541;28;20102;-28
2022/06/07 10:07:56;;;;;;;2.42;1.80;;;;;;;26.08;33.00;96504.78;5134439;28;20019;-27
2022/06/07 10:10:25;;;;;;;5.25;1.83;;;;;;;26.05;32.86;96509.38;5134017;28;20135;-29
2022/06/07 10:13:32;;;;;;;2.33;1.58;;;;;;;26.04;32.94;96502.31;5134102;28;20087;-28
2022/06/07 10:16:35;;;;;;;2.83;1.73;;;;;;;26.17;33.02;96495.31;5031111;28;20617;-28
2022/06/07 10:19:24;;;;;;;4.00;1.52;;;;;;;26.13;33.16;96490.78;5031027;28;20037;-29
2022/06/07 10:22:14;;;;;;;2.35;1.25;;;;;;;26.13;32.81;96487.25;5030992;28;20041;-28
2022/06/07 10:25:04;;;;;;;1.92;1.45;;;;;;;26.15;32.94;96500.63;5031073;28;20033;-27
2022/06/07 10:27:38;;;;;;;1.83;1.65;;;;;;;26.09;33.21;96487.56;5031250;28;20108;-28
2022/06/07 10:30:09;;;;;;;3.15;1.67;;;;;;;26.05;32.83;96492.69;5030921;28;20524;-28
2022/06/07 10:32:50;;;;;;;3.75;1.50;;;;;;;26.08;33.00;96490.91;5028248;28;20534;-27
2022/06/07 10:35:23;;;;;;;4.28;1.98;;;;;;;26.12;33.05;96480.19;5028327;28;20037;-27
2022/06/07 10:37:51;;;;;;;3.30;1.65;;;;;;;26.16;32.92;96480.66;5030832;28;20507;-28
2022/06/07 10:40:29;;;;;;;3.47;1.65;;;;;;;26.27;32.70;96480.47;5030917;28;20087;-27
2022/06/07 10:43:07;;;;;;;5.43;1.70;;;;;;;26.24;32.49;96475.97;5030956;28;20108;-27
2022/06/07 10:45:37;;;;;;;4.75;1.75;;;;;;;26.25;32.49;96487.84;5030914;28;20505;-28
2022/06/07 10:48:17;;;;;;;2.90;1.33;;;;;;;26.16;32.74;96480.66;5030737;28;20049;-27
2022/06/07 10:50:56;;;;;;;5.80;1.45;;;;;;;26.26;32.83;96473.41;5052976;28;20035;-27
2022/06/07 10:53:30;;;;;;;2.47;1.77;;;;;;;26.27;32.93;96476.94;5134073;28;20023;-27
2022/06/07 10:56:14;;;;;;;3.42;1.70;;;;;;;26.27;32.99;96463.03;5133727;27;20031;-28
2022/06/07 10:58:49;;;;;;;1.95;1.42;;;;;;;26.24;32.77;96464.09;5137250;27;20027;-27
2022/06/07 11:01:17;;;;;;;1.70;1.40;;;;;;;26.24;32.97;96466.88;5137739;27;20045;-27
2022/06/07 11:10:06;;;;;;;3.53;1.50;;;;;;;26.19;32.93;96464.94;5137427;27;20111;-27
2022/06/07 11:13:04;;;;;;;3.30;1.45;;;;;;;26.33;32.59;96455.41;5137313;27;20023;-29
2022/06/07 11:15:37;;;;;;;3.15;2.20;;;;;;;26.24;32.57;96472.44;5137009;27;20030;-30
2022/06/07 11:18:07;;;;;;;3.30;1.67;;;;;;;26.26;32.84;96453.94;5137565;27;20031;-27
2022/06/07 11:20:34;;;;;;;4.28;1.70;;;;;;;26.17;33.20;96462.69;5137248;27;20539;-28
2022/06/07 11:23:11;;;;;;;3.38;1.70;;;;;;;26.27;32.69;96447.09;5137224;27;20015;-28
2022/06/07 11:25:43;;;;;;;3.45;1.67;;;;;;;26.32;32.90;96448.34;5137192;27;20019;-27
2022/06/07 11:28:22;;;;;;;4.40;1.20;;;;;;;26.24;33.24;96437.03;5137197;27;20091;-27
2022/06/07 11:30:53;;;;;;;1.67;1.30;;;;;;;26.27;32.67;96447.09;5137046;27;20671;-28
2022/06/07 11:33:57;;;;;;;3.00;1.30;;;;;;;26.28;32.91;96434.75;5136693;27;20498;-28
2022/06/07 11:36:37;;;;;;;4.25;1.40;;;;;;;26.28;33.02;96439.56;5137016;27;20019;-27
2022/06/07 11:39:16;;;;;;;3.15;1.45;;;;;;;26.37;32.41;96425.22;5136654;27;20022;-27
2022/06/07 11:41:52;;;;;;;4.30;1.75;;;;;;;26.35;32.77;96430.56;5136963;27;20026;-29
2022/06/07 11:44:17;;;;;;;3.30;1.75;;;;;;;26.35;32.44;96419.44;5136864;27;20049;-27
2022/06/07 11:47:03;;;;;;;5.57;1.95;;;;;;;26.30;32.94;96434.22;5136604;27;20456;-28
2022/06/07 11:49:28;;;;;;;3.33;1.40;;;;;;;26.33;32.42;96428.34;5118430;27;20019;-29
2022/06/07 11:52:12;;;;;;;2.70;1.77;;;;;;;26.36;32.80;96418.16;5136615;27;20023;-27
2022/06/07 11:54:43;;;;;;;2.20;1.75;;;;;;;26.39;32.42;96419.91;5136546;27;20075;-28
2022/06/07 11:57:35;;;;;;;2.30;1.20;;;;;;;26.41;32.79;96418.09;5136446;27;20057;-28
2022/06/07 12:00:18;;;;;;;2.80;1.30;;;;;;;26.39;32.54;96415.09;5136430;27;20471;-28
2022/06/07 12:02:56;;;;;;;3.45;1.40;;;;;;;26.40;32.66;96427.72;5136318;27;20049;-28
2022/06/07 12:05:37;;;;;;;2.20;1.30;;;;;;;26.36;32.93;96423.72;5136403;27;20420;-28
2022/06/07 12:08:11;;;;;;;2.55;1.35;;;;;;;26.36;32.80;96421.69;5136449;27;20386;-27
2022/06/07 12:10:52;;;;;;;2.20;1.45;;;;;;;26.34;33.04;96424.25;5136291;27;20043;-27
2022/06/07 12:13:52;;;;;;;4.28;1.50;;;;;;;26.35;32.62;96439.66;5117300;27;20034;-28
2022/06/07 12:16:29;;;;;;;2.13;1.30;;;;;;;26.40;33.06;96424.19;5129989;27;20050;-30